sensor_id;sensor_type;location;lat;lon;timestamp;temperature;humidity
19970;DHT22;10146;47.754;9.566;2024-02-21T00:01:42;3.50;99.90
19970;DHT22;10146;47.754;9.566;2024-02-21T00:04:08;3.40;99.90
19970;DHT22;10146;47.754;9.566;2024-02-21T00:06:33;3.40;99.90
19970;DHT22;10146;47.754;9.566;2024-02-21T00:08:59;3.30;99.90
19970;DHT22;10146;47.754;9.566;2024-02-21T00:11:24;3.40;99.90
19970;DHT22;10146;47.754;9.566;2024-02-21T00:13:50;3.40;99.90
19970;DHT22;10146;47.754;9.566;2024-02-21T00:16:16;3.30;99.90
19970;DHT22;10146;47.754;9.566;2024-02-21T00:18:43;3.30;99.90
19970;DHT22;10146;47.754;9.566;2024-02-21T00:21:08;3.30;99.90
19970;DHT22;10146;47.754;9.566;2024-02-21T00:23:34;3.30;99.90
19970;DHT22;10146;47.754;9.566;2024-02-21T00:25:59;3.30;99.90
19970;DHT22;10146;47.754;9.566;2024-02-21T00:28:25;3.30;99.90
19970;DHT22;10146;47.754;9.566;2024-02-21T00:30:50;3.20;99.90
19970;DHT22;10146;47.754;9.566;2024-02-21T00:33:18;3.30;99.90
19970;DHT22;10146;47.754;9.566;2024-02-21T00:35:44;3.30;99.90
19970;DHT22;10146;47.754;9.566;2024-02-21T00:38:10;3.30;99.90
19970;DHT22;10146;47.754;9.566;2024-02-21T00:40:35;3.30;99.90
19970;DHT22;10146;47.754;9.566;2024-02-21T00:43:01;3.20;99.90
19970;DHT22;10146;47.754;9.566;2024-02-21T00:45:26;3.20;99.90
19970;DHT22;10146;47.754;9.566;2024-02-21T00:47:52;3.30;99.90
19970;DHT22;10146;47.754;9.566;2024-02-21T00:50:18;3.30;99.90
19970;DHT22;10146;47.754;9.566;2024-02-21T00:52:43;3.30;99.90
19970;DHT22;10146;47.754;9.566;2024-02-21T00:55:09;3.30;99.90
19970;DHT22;10146;47.754;9.566;2024-02-21T00:57:35;3.30;99.90
19970;DHT22;10146;47.754;9.566;2024-02-21T01:00:02;3.20;99.90
19970;DHT22;10146;47.754;9.566;2024-02-21T01:02:28;3.10;99.90
19970;DHT22;10146;47.754;9.566;2024-02-21T01:04:59;3.00;99.90
19970;DHT22;10146;47.754;9.566;2024-02-21T01:07:25;3.00;99.90
19970;DHT22;10146;47.754;9.566;2024-02-21T01:09:50;3.10;99.90
19970;DHT22;10146;47.754;9.566;2024-02-21T01:12:19;3.10;99.90
19970;DHT22;10146;47.754;9.566;2024-02-21T01:14:44;3.10;99.90
19970;DHT22;10146;47.754;9.566;2024-02-21T01:17:12;3.10;99.90
19970;DHT22;10146;47.754;9.566;2024-02-21T01:19:37;3.10;99.90
19970;DHT22;10146;47.754;9.566;2024-02-21T01:22:04;3.10;99.90
19970;DHT22;10146;47.754;9.566;2024-02-21T01:24:30;3.10;99.90
19970;DHT22;10146;47.754;9.566;2024-02-21T01:26:55;3.00;99.90
19970;DHT22;10146;47.754;9.566;2024-02-21T01:29:21;3.00;99.90
19970;DHT22;10146;47.754;9.566;2024-02-21T01:31:46;2.90;99.90
19970;DHT22;10146;47.754;9.566;2024-02-21T01:34:13;2.90;99.90
19970;DHT22;10146;47.754;9.566;2024-02-21T01:36:38;2.80;99.90
19970;DHT22;10146;47.754;9.566;2024-02-21T01:39:04;2.80;99.90
19970;DHT22;10146;47.754;9.566;2024-02-21T01:41:30;2.80;99.90
19970;DHT22;10146;47.754;9.566;2024-02-21T01:43:56;2.80;99.90
19970;DHT22;10146;47.754;9.566;2024-02-21T01:46:23;2.90;99.90
19970;DHT22;10146;47.754;9.566;2024-02-21T01:48:49;3.00;99.90
19970;DHT22;10146;47.754;9.566;2024-02-21T01:51:15;3.00;99.90
19970;DHT22;10146;47.754;9.566;2024-02-21T01:53:43;3.00;99.90
19970;DHT22;10146;47.754;9.566;2024-02-21T01:56:10;3.00;99.90
19970;DHT22;10146;47.754;9.566;2024-02-21T01:58:37;3.00;99.90
19970;DHT22;10146;47.754;9.566;2024-02-21T02:01:03;3.00;99.90
19970;DHT22;10146;47.754;9.566;2024-02-21T02:03:29;2.90;99.90
19970;DHT22;10146;47.754;9.566;2024-02-21T02:05:55;2.90;99.90
19970;DHT22;10146;47.754;9.566;2024-02-21T02:08:21;2.90;99.90
19970;DHT22;10146;47.754;9.566;2024-02-21T02:10:48;2.90;99.90
19970;DHT22;10146;47.754;9.566;2024-02-21T02:13:14;2.80;99.90
19970;DHT22;10146;47.754;9.566;2024-02-21T02:15:46;2.90;99.90
19970;DHT22;10146;47.754;9.566;2024-02-21T02:18:13;2.90;99.90
19970;DHT22;10146;47.754;9.566;2024-02-21T02:20:40;2.90;99.90
19970;DHT22;10146;47.754;9.566;2024-02-21T02:23:24;2.90;99.90
19970;DHT22;10146;47.754;9.566;2024-02-21T02:25:50;2.90;99.90
19970;DHT22;10146;47.754;9.566;2024-02-21T02:28:19;3.00;99.90
19970;DHT22;10146;47.754;9.566;2024-02-21T02:30:45;3.00;99.90
19970;DHT22;10146;47.754;9.566;2024-02-21T02:33:10;3.00;99.90
19970;DHT22;10146;47.754;9.566;2024-02-21T02:35:36;3.00;99.90
19970;DHT22;10146;47.754;9.566;2024-02-21T02:38:03;2.90;99.90
19970;DHT22;10146;47.754;9.566;2024-02-21T02:40:29;2.90;99.90
19970;DHT22;10146;47.754;9.566;2024-02-21T02:42:54;2.80;99.90
19970;DHT22;10146;47.754;9.566;2024-02-21T02:45:21;2.80;99.90
19970;DHT22;10146;47.754;9.566;2024-02-21T02:47:48;2.80;99.90
19970;DHT22;10146;47.754;9.566;2024-02-21T02:50:14;2.80;99.90
19970;DHT22;10146;47.754;9.566;2024-02-21T02:52:40;2.80;99.90
19970;DHT22;10146;47.754;9.566;2024-02-21T02:55:06;2.80;99.90
19970;DHT22;10146;47.754;9.566;2024-02-21T02:57:32;2.80;99.90
19970;DHT22;10146;47.754;9.566;2024-02-21T02:59:58;2.80;99.90
19970;DHT22;10146;47.754;9.566;2024-02-21T03:02:24;2.80;99.90
19970;DHT22;10146;47.754;9.566;2024-02-21T03:04:49;2.90;99.90
19970;DHT22;10146;47.754;9.566;2024-02-21T03:07:15;2.80;99.90
19970;DHT22;10146;47.754;9.566;2024-02-21T03:09:41;2.80;99.90
19970;DHT22;10146;47.754;9.566;2024-02-21T03:12:10;2.90;99.90
19970;DHT22;10146;47.754;9.566;2024-02-21T03:14:36;2.90;99.90
19970;DHT22;10146;47.754;9.566;2024-02-21T03:17:02;2.90;99.90
19970;DHT22;10146;47.754;9.566;2024-02-21T03:19:29;3.00;99.90
19970;DHT22;10146;47.754;9.566;2024-02-21T03:21:54;3.00;99.90
19970;DHT22;10146;47.754;9.566;2024-02-21T03:24:20;3.00;99.90
19970;DHT22;10146;47.754;9.566;2024-02-21T03:26:46;3.00;99.90
19970;DHT22;10146;47.754;9.566;2024-02-21T03:29:14;3.10;99.90
19970;DHT22;10146;47.754;9.566;2024-02-21T03:31:40;3.20;99.90
19970;DHT22;10146;47.754;9.566;2024-02-21T03:34:06;3.20;99.90
19970;DHT22;10146;47.754;9.566;2024-02-21T03:36:31;3.30;99.90
19970;DHT22;10146;47.754;9.566;2024-02-21T03:38:57;3.30;99.90
19970;DHT22;10146;47.754;9.566;2024-02-21T03:41:22;3.30;99.90
19970;DHT22;10146;47.754;9.566;2024-02-21T03:43:48;3.30;99.90
19970;DHT22;10146;47.754;9.566;2024-02-21T03:46:14;3.30;99.90
19970;DHT22;10146;47.754;9.566;2024-02-21T03:48:40;3.30;99.90
19970;DHT22;10146;47.754;9.566;2024-02-21T03:51:06;3.40;99.90
19970;DHT22;10146;47.754;9.566;2024-02-21T03:53:32;3.40;99.90
19970;DHT22;10146;47.754;9.566;2024-02-21T03:56:00;3.40;99.90
19970;DHT22;10146;47.754;9.566;2024-02-21T03:58:28;3.40;99.90
19970;DHT22;10146;47.754;9.566;2024-02-21T04:00:54;3.30;99.90
19970;DHT22;10146;47.754;9.566;2024-02-21T04:03:19;3.30;99.90
19970;DHT22;10146;47.754;9.566;2024-02-21T04:05:45;3.30;99.90
19970;DHT22;10146;47.754;9.566;2024-02-21T04:08:11;3.30;99.90
19970;DHT22;10146;47.754;9.566;2024-02-21T04:10:36;3.30;99.90
19970;DHT22;10146;47.754;9.566;2024-02-21T04:13:03;3.40;99.90
19970;DHT22;10146;47.754;9.566;2024-02-21T04:15:29;3.30;99.90
19970;DHT22;10146;47.754;9.566;2024-02-21T04:17:54;3.30;99.90
19970;DHT22;10146;47.754;9.566;2024-02-21T04:20:20;3.30;99.90
19970;DHT22;10146;47.754;9.566;2024-02-21T04:22:46;3.30;99.90
19970;DHT22;10146;47.754;9.566;2024-02-21T04:25:12;3.40;99.90
19970;DHT22;10146;47.754;9.566;2024-02-21T04:27:39;3.40;99.90
19970;DHT22;10146;47.754;9.566;2024-02-21T04:30:06;3.40;99.90
19970;DHT22;10146;47.754;9.566;2024-02-21T04:32:32;3.40;99.90
19970;DHT22;10146;47.754;9.566;2024-02-21T04:34:57;3.30;99.90
19970;DHT22;10146;47.754;9.566;2024-02-21T04:37:23;3.20;99.90
19970;DHT22;10146;47.754;9.566;2024-02-21T04:39:49;3.10;99.90
19970;DHT22;10146;47.754;9.566;2024-02-21T04:42:15;3.10;99.90
19970;DHT22;10146;47.754;9.566;2024-02-21T04:44:41;3.20;99.90
19970;DHT22;10146;47.754;9.566;2024-02-21T04:47:07;3.10;99.90
19970;DHT22;10146;47.754;9.566;2024-02-21T04:49:33;3.10;99.90
19970;DHT22;10146;47.754;9.566;2024-02-21T04:51:58;3.20;99.90
19970;DHT22;10146;47.754;9.566;2024-02-21T04:54:24;3.20;99.90
19970;DHT22;10146;47.754;9.566;2024-02-21T04:56:50;3.20;99.90
19970;DHT22;10146;47.754;9.566;2024-02-21T04:59:16;3.20;99.90
19970;DHT22;10146;47.754;9.566;2024-02-21T05:01:42;3.20;99.90
19970;DHT22;10146;47.754;9.566;2024-02-21T05:04:07;3.30;99.90
19970;DHT22;10146;47.754;9.566;2024-02-21T05:06:38;3.30;99.90
19970;DHT22;10146;47.754;9.566;2024-02-21T05:09:04;3.30;99.90
19970;DHT22;10146;47.754;9.566;2024-02-21T05:11:30;3.40;99.90
19970;DHT22;10146;47.754;9.566;2024-02-21T05:13:56;3.30;99.90
19970;DHT22;10146;47.754;9.566;2024-02-21T05:16:21;3.30;99.90
19970;DHT22;10146;47.754;9.566;2024-02-21T05:18:47;3.40;99.90
19970;DHT22;10146;47.754;9.566;2024-02-21T05:21:13;3.30;99.90
19970;DHT22;10146;47.754;9.566;2024-02-21T05:23:38;3.30;99.90
19970;DHT22;10146;47.754;9.566;2024-02-21T05:26:07;3.30;99.90
19970;DHT22;10146;47.754;9.566;2024-02-21T05:28:32;3.40;99.90
19970;DHT22;10146;47.754;9.566;2024-02-21T05:30:58;3.40;99.90
19970;DHT22;10146;47.754;9.566;2024-02-21T05:33:24;3.40;99.90
19970;DHT22;10146;47.754;9.566;2024-02-21T05:35:50;3.30;99.90
19970;DHT22;10146;47.754;9.566;2024-02-21T05:38:16;3.30;99.90
19970;DHT22;10146;47.754;9.566;2024-02-21T05:40:42;3.20;99.90
19970;DHT22;10146;47.754;9.566;2024-02-21T05:43:08;3.20;99.90
19970;DHT22;10146;47.754;9.566;2024-02-21T05:45:33;3.30;99.90
19970;DHT22;10146;47.754;9.566;2024-02-21T05:47:59;3.20;99.90
19970;DHT22;10146;47.754;9.566;2024-02-21T05:50:25;3.20;99.90
19970;DHT22;10146;47.754;9.566;2024-02-21T05:52:52;3.30;99.90
19970;DHT22;10146;47.754;9.566;2024-02-21T05:55:18;3.30;99.90
19970;DHT22;10146;47.754;9.566;2024-02-21T05:57:44;3.30;99.90
19970;DHT22;10146;47.754;9.566;2024-02-21T06:00:09;3.40;99.90
19970;DHT22;10146;47.754;9.566;2024-02-21T06:02:35;3.40;99.90
19970;DHT22;10146;47.754;9.566;2024-02-21T06:05:01;3.30;99.90
19970;DHT22;10146;47.754;9.566;2024-02-21T06:07:27;3.40;99.90
19970;DHT22;10146;47.754;9.566;2024-02-21T06:09:52;3.40;99.90
19970;DHT22;10146;47.754;9.566;2024-02-21T06:12:18;3.40;99.90
19970;DHT22;10146;47.754;9.566;2024-02-21T06:14:44;3.50;99.90
19970;DHT22;10146;47.754;9.566;2024-02-21T06:17:10;3.40;99.90
19970;DHT22;10146;47.754;9.566;2024-02-21T06:19:35;3.40;99.90
19970;DHT22;10146;47.754;9.566;2024-02-21T06:22:01;3.40;99.90
19970;DHT22;10146;47.754;9.566;2024-02-21T06:24:26;3.40;99.90
19970;DHT22;10146;47.754;9.566;2024-02-21T06:26:52;3.40;99.90
19970;DHT22;10146;47.754;9.566;2024-02-21T06:29:18;3.50;99.90
19970;DHT22;10146;47.754;9.566;2024-02-21T06:31:43;3.50;99.90
19970;DHT22;10146;47.754;9.566;2024-02-21T06:34:09;3.50;99.90
19970;DHT22;10146;47.754;9.566;2024-02-21T06:36:34;3.50;99.90
19970;DHT22;10146;47.754;9.566;2024-02-21T06:39:00;3.50;99.90
19970;DHT22;10146;47.754;9.566;2024-02-21T06:41:26;3.50;99.90
19970;DHT22;10146;47.754;9.566;2024-02-21T06:43:51;3.50;99.90
19970;DHT22;10146;47.754;9.566;2024-02-21T06:46:27;3.40;99.90
19970;DHT22;10146;47.754;9.566;2024-02-21T06:48:58;3.60;99.90
19970;DHT22;10146;47.754;9.566;2024-02-21T06:51:24;3.60;99.90
19970;DHT22;10146;47.754;9.566;2024-02-21T06:53:50;3.60;99.90
19970;DHT22;10146;47.754;9.566;2024-02-21T06:56:16;3.60;99.90
19970;DHT22;10146;47.754;9.566;2024-02-21T06:58:41;3.60;99.90
19970;DHT22;10146;47.754;9.566;2024-02-21T07:01:10;3.60;99.90
19970;DHT22;10146;47.754;9.566;2024-02-21T07:03:36;3.60;99.90
19970;DHT22;10146;47.754;9.566;2024-02-21T07:06:02;3.60;99.90
19970;DHT22;10146;47.754;9.566;2024-02-21T07:08:28;3.60;99.90
19970;DHT22;10146;47.754;9.566;2024-02-21T07:10:53;3.70;99.90
19970;DHT22;10146;47.754;9.566;2024-02-21T07:13:19;3.80;99.90
19970;DHT22;10146;47.754;9.566;2024-02-21T07:15:45;3.90;99.90
19970;DHT22;10146;47.754;9.566;2024-02-21T07:18:11;4.00;99.90
19970;DHT22;10146;47.754;9.566;2024-02-21T07:20:37;4.10;99.90
19970;DHT22;10146;47.754;9.566;2024-02-21T07:23:03;4.20;99.90
19970;DHT22;10146;47.754;9.566;2024-02-21T07:25:29;4.30;99.90
19970;DHT22;10146;47.754;9.566;2024-02-21T07:27:54;4.40;99.90
19970;DHT22;10146;47.754;9.566;2024-02-21T07:30:20;4.50;99.90
19970;DHT22;10146;47.754;9.566;2024-02-21T07:32:45;4.60;99.90
19970;DHT22;10146;47.754;9.566;2024-02-21T07:35:14;4.70;99.90
19970;DHT22;10146;47.754;9.566;2024-02-21T07:37:39;4.80;99.90
19970;DHT22;10146;47.754;9.566;2024-02-21T07:40:13;5.00;99.90
19970;DHT22;10146;47.754;9.566;2024-02-21T07:42:39;5.00;99.90
19970;DHT22;10146;47.754;9.566;2024-02-21T07:45:09;5.10;99.90
19970;DHT22;10146;47.754;9.566;2024-02-21T07:47:36;5.20;99.90
19970;DHT22;10146;47.754;9.566;2024-02-21T07:50:02;5.20;99.90
19970;DHT22;10146;47.754;9.566;2024-02-21T07:52:28;5.20;99.90
19970;DHT22;10146;47.754;9.566;2024-02-21T07:54:53;5.20;99.90
19970;DHT22;10146;47.754;9.566;2024-02-21T07:57:19;5.30;99.90
19970;DHT22;10146;47.754;9.566;2024-02-21T07:59:45;5.30;99.90
19970;DHT22;10146;47.754;9.566;2024-02-21T08:02:15;5.40;99.90
19970;DHT22;10146;47.754;9.566;2024-02-21T08:04:41;5.40;99.90
19970;DHT22;10146;47.754;9.566;2024-02-21T08:07:07;5.50;99.90
19970;DHT22;10146;47.754;9.566;2024-02-21T08:09:32;5.60;99.90
19970;DHT22;10146;47.754;9.566;2024-02-21T08:11:58;5.70;99.90
19970;DHT22;10146;47.754;9.566;2024-02-21T08:14:24;5.80;99.90
19970;DHT22;10146;47.754;9.566;2024-02-21T08:16:51;5.80;99.90
19970;DHT22;10146;47.754;9.566;2024-02-21T08:19:18;6.00;99.90
19970;DHT22;10146;47.754;9.566;2024-02-21T08:21:44;6.00;99.90
19970;DHT22;10146;47.754;9.566;2024-02-21T08:24:12;6.10;99.90
19970;DHT22;10146;47.754;9.566;2024-02-21T08:26:40;6.20;99.90
19970;DHT22;10146;47.754;9.566;2024-02-21T08:29:06;6.20;99.90
19970;DHT22;10146;47.754;9.566;2024-02-21T08:31:31;6.30;99.90
19970;DHT22;10146;47.754;9.566;2024-02-21T08:34:01;6.40;99.90
19970;DHT22;10146;47.754;9.566;2024-02-21T08:36:30;6.40;99.90
19970;DHT22;10146;47.754;9.566;2024-02-21T08:38:56;6.50;99.90
19970;DHT22;10146;47.754;9.566;2024-02-21T08:41:25;6.70;99.90
19970;DHT22;10146;47.754;9.566;2024-02-21T08:43:54;6.70;99.90
19970;DHT22;10146;47.754;9.566;2024-02-21T08:46:20;6.70;99.90
19970;DHT22;10146;47.754;9.566;2024-02-21T08:48:46;6.70;99.90
19970;DHT22;10146;47.754;9.566;2024-02-21T08:51:12;6.80;99.90
19970;DHT22;10146;47.754;9.566;2024-02-21T08:53:38;6.80;99.90
19970;DHT22;10146;47.754;9.566;2024-02-21T08:56:04;6.80;99.90
19970;DHT22;10146;47.754;9.566;2024-02-21T08:58:30;7.00;99.90
19970;DHT22;10146;47.754;9.566;2024-02-21T09:00:56;7.00;99.90
19970;DHT22;10146;47.754;9.566;2024-02-21T09:03:24;7.00;99.90
19970;DHT22;10146;47.754;9.566;2024-02-21T09:05:50;7.10;99.90
19970;DHT22;10146;47.754;9.566;2024-02-21T09:08:16;7.20;99.90
19970;DHT22;10146;47.754;9.566;2024-02-21T09:10:41;7.40;99.90
19970;DHT22;10146;47.754;9.566;2024-02-21T09:13:07;7.50;99.90
19970;DHT22;10146;47.754;9.566;2024-02-21T09:15:34;7.60;99.90
19970;DHT22;10146;47.754;9.566;2024-02-21T09:17:59;7.70;99.90
19970;DHT22;10146;47.754;9.566;2024-02-21T09:20:25;7.80;99.90
19970;DHT22;10146;47.754;9.566;2024-02-21T09:22:51;7.90;99.90
19970;DHT22;10146;47.754;9.566;2024-02-21T09:25:17;8.00;99.90
19970;DHT22;10146;47.754;9.566;2024-02-21T09:27:44;8.00;99.90
19970;DHT22;10146;47.754;9.566;2024-02-21T09:30:10;8.10;99.90
19970;DHT22;10146;47.754;9.566;2024-02-21T09:32:36;8.20;99.90
19970;DHT22;10146;47.754;9.566;2024-02-21T09:35:02;8.30;99.90
19970;DHT22;10146;47.754;9.566;2024-02-21T09:37:28;8.40;99.90
19970;DHT22;10146;47.754;9.566;2024-02-21T09:39:54;8.30;99.90
19970;DHT22;10146;47.754;9.566;2024-02-21T09:42:20;8.40;99.90
19970;DHT22;10146;47.754;9.566;2024-02-21T09:44:47;8.50;99.90
19970;DHT22;10146;47.754;9.566;2024-02-21T09:47:22;8.50;99.90
19970;DHT22;10146;47.754;9.566;2024-02-21T09:49:48;8.50;99.90
19970;DHT22;10146;47.754;9.566;2024-02-21T09:52:15;8.60;99.90
19970;DHT22;10146;47.754;9.566;2024-02-21T09:54:41;8.70;99.90
19970;DHT22;10146;47.754;9.566;2024-02-21T09:57:10;8.80;99.90
19970;DHT22;10146;47.754;9.566;2024-02-21T09:59:35;8.80;99.90
19970;DHT22;10146;47.754;9.566;2024-02-21T10:02:01;8.80;99.90
19970;DHT22;10146;47.754;9.566;2024-02-21T10:04:27;8.70;99.90
19970;DHT22;10146;47.754;9.566;2024-02-21T10:06:56;8.70;99.90
19970;DHT22;10146;47.754;9.566;2024-02-21T10:09:26;8.80;99.90
19970;DHT22;10146;47.754;9.566;2024-02-21T10:12:15;8.80;99.90
19970;DHT22;10146;47.754;9.566;2024-02-21T10:14:44;8.80;99.90
19970;DHT22;10146;47.754;9.566;2024-02-21T10:17:18;8.80;99.90
19970;DHT22;10146;47.754;9.566;2024-02-21T10:19:45;8.90;99.90
19970;DHT22;10146;47.754;9.566;2024-02-21T10:22:12;8.90;99.90
19970;DHT22;10146;47.754;9.566;2024-02-21T10:24:40;9.00;99.90
19970;DHT22;10146;47.754;9.566;2024-02-21T10:27:09;9.10;99.90
19970;DHT22;10146;47.754;9.566;2024-02-21T10:29:36;9.20;99.90
19970;DHT22;10146;47.754;9.566;2024-02-21T10:32:09;9.30;99.90
19970;DHT22;10146;47.754;9.566;2024-02-21T10:34:36;9.40;99.90
19970;DHT22;10146;47.754;9.566;2024-02-21T10:37:05;9.50;99.90
19970;DHT22;10146;47.754;9.566;2024-02-21T10:39:37;9.50;99.90
19970;DHT22;10146;47.754;9.566;2024-02-21T10:42:03;9.50;99.90
19970;DHT22;10146;47.754;9.566;2024-02-21T10:44:31;9.60;99.90
19970;DHT22;10146;47.754;9.566;2024-02-21T10:46:57;9.60;99.90
19970;DHT22;10146;47.754;9.566;2024-02-21T10:49:24;9.70;99.90
19970;DHT22;10146;47.754;9.566;2024-02-21T10:52:17;9.80;99.90
19970;DHT22;10146;47.754;9.566;2024-02-21T10:54:55;9.90;99.90
19970;DHT22;10146;47.754;9.566;2024-02-21T10:57:22;10.00;99.90
19970;DHT22;10146;47.754;9.566;2024-02-21T10:59:48;10.10;99.90
19970;DHT22;10146;47.754;9.566;2024-02-21T11:02:16;10.10;99.90
19970;DHT22;10146;47.754;9.566;2024-02-21T11:04:42;10.20;99.90
19970;DHT22;10146;47.754;9.566;2024-02-21T11:07:09;10.20;99.90
19970;DHT22;10146;47.754;9.566;2024-02-21T11:09:34;10.30;99.90
19970;DHT22;10146;47.754;9.566;2024-02-21T11:12:05;10.40;99.90
19970;DHT22;10146;47.754;9.566;2024-02-21T11:14:31;10.40;99.90
19970;DHT22;10146;47.754;9.566;2024-02-21T11:17:18;10.50;99.90
19970;DHT22;10146;47.754;9.566;2024-02-21T11:19:44;10.50;99.90
19970;DHT22;10146;47.754;9.566;2024-02-21T11:22:17;10.60;99.90
19970;DHT22;10146;47.754;9.566;2024-02-21T11:24:43;10.70;99.90
19970;DHT22;10146;47.754;9.566;2024-02-21T11:27:11;10.70;99.90
19970;DHT22;10146;47.754;9.566;2024-02-21T11:32:10;10.90;99.90
19970;DHT22;10146;47.754;9.566;2024-02-21T11:34:37;10.90;99.90
19970;DHT22;10146;47.754;9.566;2024-02-21T11:37:13;10.80;99.90
19970;DHT22;10146;47.754;9.566;2024-02-21T11:39:41;10.90;99.90
19970;DHT22;10146;47.754;9.566;2024-02-21T11:42:08;10.90;99.90
19970;DHT22;10146;47.754;9.566;2024-02-21T11:44:35;10.90;99.90
19970;DHT22;10146;47.754;9.566;2024-02-21T11:47:06;11.00;99.90
19970;DHT22;10146;47.754;9.566;2024-02-21T11:49:38;11.00;99.90
19970;DHT22;10146;47.754;9.566;2024-02-21T11:52:10;11.10;99.90
19970;DHT22;10146;47.754;9.566;2024-02-21T11:54:36;11.10;99.90
19970;DHT22;10146;47.754;9.566;2024-02-21T11:57:02;11.10;99.90
19970;DHT22;10146;47.754;9.566;2024-02-21T11:59:33;11.10;99.90
19970;DHT22;10146;47.754;9.566;2024-02-21T12:02:02;11.20;99.90
19970;DHT22;10146;47.754;9.566;2024-02-21T12:04:29;11.20;99.90
19970;DHT22;10146;47.754;9.566;2024-02-21T12:06:57;11.20;99.90
19970;DHT22;10146;47.754;9.566;2024-02-21T12:09:25;11.30;99.90
19970;DHT22;10146;47.754;9.566;2024-02-21T12:12:02;11.30;99.90
19970;DHT22;10146;47.754;9.566;2024-02-21T12:14:29;11.30;99.90
19970;DHT22;10146;47.754;9.566;2024-02-21T12:16:56;11.40;99.90
19970;DHT22;10146;47.754;9.566;2024-02-21T12:19:22;11.40;99.90
19970;DHT22;10146;47.754;9.566;2024-02-21T12:21:48;11.50;99.90
19970;DHT22;10146;47.754;9.566;2024-02-21T12:24:25;11.60;99.90
19970;DHT22;10146;47.754;9.566;2024-02-21T12:26:51;11.60;99.90
19970;DHT22;10146;47.754;9.566;2024-02-21T12:29:18;11.70;99.90
19970;DHT22;10146;47.754;9.566;2024-02-21T12:31:44;11.80;99.90
19970;DHT22;10146;47.754;9.566;2024-02-21T12:34:10;11.90;99.90
19970;DHT22;10146;47.754;9.566;2024-02-21T12:36:45;12.00;99.90
19970;DHT22;10146;47.754;9.566;2024-02-21T12:39:14;12.10;99.90
19970;DHT22;10146;47.754;9.566;2024-02-21T12:41:40;12.20;99.90
19970;DHT22;10146;47.754;9.566;2024-02-21T12:44:07;12.30;99.90
19970;DHT22;10146;47.754;9.566;2024-02-21T12:46:35;12.40;99.90
19970;DHT22;10146;47.754;9.566;2024-02-21T12:49:04;12.40;99.90
19970;DHT22;10146;47.754;9.566;2024-02-21T12:51:31;12.50;99.90
19970;DHT22;10146;47.754;9.566;2024-02-21T12:53:57;12.50;99.90
19970;DHT22;10146;47.754;9.566;2024-02-21T12:56:23;12.40;99.90
19970;DHT22;10146;47.754;9.566;2024-02-21T12:58:50;12.50;99.90
19970;DHT22;10146;47.754;9.566;2024-02-21T13:01:16;12.60;99.90
19970;DHT22;10146;47.754;9.566;2024-02-21T13:03:41;12.60;99.90
19970;DHT22;10146;47.754;9.566;2024-02-21T13:06:07;12.70;99.90
19970;DHT22;10146;47.754;9.566;2024-02-21T13:08:36;12.70;99.90
19970;DHT22;10146;47.754;9.566;2024-02-21T13:11:02;12.70;99.90
19970;DHT22;10146;47.754;9.566;2024-02-21T13:13:31;12.70;99.90
19970;DHT22;10146;47.754;9.566;2024-02-21T13:15:59;12.80;99.90
19970;DHT22;10146;47.754;9.566;2024-02-21T13:18:25;12.70;99.90
19970;DHT22;10146;47.754;9.566;2024-02-21T13:20:51;12.70;99.90
19970;DHT22;10146;47.754;9.566;2024-02-21T13:23:16;12.70;99.90
19970;DHT22;10146;47.754;9.566;2024-02-21T13:25:42;12.70;99.90
19970;DHT22;10146;47.754;9.566;2024-02-21T13:28:09;12.70;99.90
19970;DHT22;10146;47.754;9.566;2024-02-21T13:30:35;12.80;99.90
19970;DHT22;10146;47.754;9.566;2024-02-21T13:33:01;12.90;99.90
19970;DHT22;10146;47.754;9.566;2024-02-21T13:35:28;12.90;99.90
19970;DHT22;10146;47.754;9.566;2024-02-21T13:37:54;12.90;99.90
19970;DHT22;10146;47.754;9.566;2024-02-21T13:40:19;13.00;99.90
19970;DHT22;10146;47.754;9.566;2024-02-21T13:42:45;12.90;99.90
19970;DHT22;10146;47.754;9.566;2024-02-21T13:45:10;13.00;99.90
19970;DHT22;10146;47.754;9.566;2024-02-21T13:47:36;13.00;99.90
19970;DHT22;10146;47.754;9.566;2024-02-21T13:50:02;12.90;99.90
19970;DHT22;10146;47.754;9.566;2024-02-21T13:52:30;12.90;99.90
19970;DHT22;10146;47.754;9.566;2024-02-21T13:54:56;13.00;99.90
19970;DHT22;10146;47.754;9.566;2024-02-21T13:57:21;12.90;99.90
19970;DHT22;10146;47.754;9.566;2024-02-21T13:59:47;12.90;99.90
19970;DHT22;10146;47.754;9.566;2024-02-21T14:02:13;12.90;99.90
19970;DHT22;10146;47.754;9.566;2024-02-21T14:04:38;12.80;99.90
19970;DHT22;10146;47.754;9.566;2024-02-21T14:07:04;12.80;99.90
19970;DHT22;10146;47.754;9.566;2024-02-21T14:09:30;12.70;99.90
19970;DHT22;10146;47.754;9.566;2024-02-21T14:11:56;12.60;99.90
19970;DHT22;10146;47.754;9.566;2024-02-21T14:14:21;12.60;99.90
19970;DHT22;10146;47.754;9.566;2024-02-21T14:16:47;12.60;99.90
19970;DHT22;10146;47.754;9.566;2024-02-21T14:19:16;12.60;99.90
19970;DHT22;10146;47.754;9.566;2024-02-21T14:21:42;12.60;99.90
19970;DHT22;10146;47.754;9.566;2024-02-21T14:24:07;12.50;99.90
19970;DHT22;10146;47.754;9.566;2024-02-21T14:26:33;12.50;99.90
19970;DHT22;10146;47.754;9.566;2024-02-21T14:29:01;12.50;99.90
19970;DHT22;10146;47.754;9.566;2024-02-21T14:31:31;12.50;99.90
19970;DHT22;10146;47.754;9.566;2024-02-21T14:33:57;12.50;99.90
19970;DHT22;10146;47.754;9.566;2024-02-21T14:36:22;12.50;99.90
19970;DHT22;10146;47.754;9.566;2024-02-21T14:38:49;12.50;99.90
19970;DHT22;10146;47.754;9.566;2024-02-21T14:41:15;12.50;99.90
19970;DHT22;10146;47.754;9.566;2024-02-21T14:43:40;12.50;99.90
19970;DHT22;10146;47.754;9.566;2024-02-21T14:46:06;12.40;99.90
19970;DHT22;10146;47.754;9.566;2024-02-21T14:48:32;12.30;99.90
19970;DHT22;10146;47.754;9.566;2024-02-21T14:50:58;12.30;99.90
19970;DHT22;10146;47.754;9.566;2024-02-21T14:53:24;12.30;99.90
19970;DHT22;10146;47.754;9.566;2024-02-21T14:55:50;12.30;99.90
19970;DHT22;10146;47.754;9.566;2024-02-21T14:58:16;12.40;99.90
19970;DHT22;10146;47.754;9.566;2024-02-21T15:00:44;12.40;99.90
19970;DHT22;10146;47.754;9.566;2024-02-21T15:03:10;12.40;99.90
19970;DHT22;10146;47.754;9.566;2024-02-21T15:05:36;12.40;99.90
19970;DHT22;10146;47.754;9.566;2024-02-21T15:08:03;12.30;99.90
19970;DHT22;10146;47.754;9.566;2024-02-21T15:10:29;12.30;99.90
19970;DHT22;10146;47.754;9.566;2024-02-21T15:12:55;12.30;99.90
19970;DHT22;10146;47.754;9.566;2024-02-21T15:15:21;12.30;99.90
19970;DHT22;10146;47.754;9.566;2024-02-21T15:17:53;12.20;99.90
19970;DHT22;10146;47.754;9.566;2024-02-21T15:20:18;12.10;99.90
19970;DHT22;10146;47.754;9.566;2024-02-21T15:22:44;12.00;99.90
19970;DHT22;10146;47.754;9.566;2024-02-21T15:25:10;12.00;99.90
19970;DHT22;10146;47.754;9.566;2024-02-21T15:27:44;11.90;99.90
19970;DHT22;10146;47.754;9.566;2024-02-21T15:30:10;11.80;99.90
19970;DHT22;10146;47.754;9.566;2024-02-21T15:32:38;11.70;99.90
19970;DHT22;10146;47.754;9.566;2024-02-21T15:35:04;11.70;99.90
19970;DHT22;10146;47.754;9.566;2024-02-21T15:37:34;11.60;99.90
19970;DHT22;10146;47.754;9.566;2024-02-21T15:40:00;11.60;99.90
19970;DHT22;10146;47.754;9.566;2024-02-21T15:42:26;11.60;99.90